createdAt,value
2022-12-08T00:01:49.216Z,6.00
2022-12-08T00:04:17.235Z,6.00
2022-12-08T00:07:04.337Z,6.00
2022-12-08T00:09:38.973Z,6.00
2022-12-08T00:12:09.873Z,6.00
2022-12-08T00:14:39.538Z,6.00
2022-12-08T00:17:09.740Z,6.00
2022-12-08T00:19:39.135Z,6.00
2022-12-08T00:22:09.291Z,6.00
2022-12-08T00:24:39.762Z,6.00
2022-12-08T00:27:08.950Z,6.00
2022-12-08T00:29:37.045Z,6.10
2022-12-08T00:32:06.249Z,6.00
2022-12-08T00:34:35.175Z,6.00
2022-12-08T00:37:03.327Z,6.00
2022-12-08T00:39:32.756Z,6.00
2022-12-08T00:42:16.265Z,6.00
2022-12-08T00:44:45.989Z,5.90
2022-12-08T00:47:17.693Z,5.90
2022-12-08T00:49:47.883Z,5.90
2022-12-08T00:52:15.969Z,6.10
2022-12-08T00:54:45.605Z,5.90
2022-12-08T00:57:13.640Z,6.10
2022-12-08T00:59:42.074Z,6.00
2022-12-08T01:02:10.091Z,6.00
2022-12-08T01:04:38.137Z,6.00
2022-12-08T01:07:06.387Z,6.00
2022-12-08T01:09:34.820Z,6.00
2022-12-08T01:12:04.484Z,6.00
2022-12-08T01:14:32.529Z,5.90
2022-12-08T01:17:00.724Z,5.90
2022-12-08T01:19:28.817Z,5.90
2022-12-08T01:21:56.823Z,5.90
2022-12-08T01:24:24.952Z,5.90
2022-12-08T01:26:53.203Z,6.00
2022-12-08T01:29:22.618Z,6.00
2022-12-08T01:31:50.567Z,6.10
2022-12-08T01:34:18.703Z,6.10
2022-12-08T01:36:48.059Z,6.40
2022-12-08T01:39:17.446Z,6.20
2022-12-08T01:41:47.569Z,6.20
2022-12-08T01:44:53.161Z,6.10
2022-12-08T01:47:24.035Z,6.20
2022-12-08T01:49:52.639Z,6.10
2022-12-08T01:52:26.584Z,6.10
2022-12-08T01:54:58.143Z,6.10
2022-12-08T01:57:30.883Z,6.10
2022-12-08T02:00:03.982Z,6.10
2022-12-08T02:02:43.291Z,6.10
2022-12-08T02:05:11.799Z,6.10
2022-12-08T02:07:40.976Z,6.10
2022-12-08T02:10:10.257Z,6.00
2022-12-08T02:12:38.259Z,6.00
2022-12-08T02:15:07.478Z,5.90
2022-12-08T02:17:50.815Z,5.80
2022-12-08T02:20:31.587Z,5.70
2022-12-08T02:23:08.794Z,5.70
2022-12-08T02:25:48.146Z,5.70
2022-12-08T02:28:38.982Z,5.70
2022-12-08T02:31:18.809Z,5.80
2022-12-08T02:34:08.174Z,5.90
2022-12-08T02:36:41.193Z,5.80
2022-12-08T02:39:17.311Z,5.80
2022-12-08T02:41:52.352Z,5.90
2022-12-08T02:44:26.425Z,6.00
2022-12-08T02:46:58.130Z,6.00
2022-12-08T02:49:31.170Z,6.00
2022-12-08T02:52:09.750Z,6.00
2022-12-08T02:54:38.551Z,6.10
2022-12-08T02:57:22.731Z,6.10
2022-12-08T03:00:04.277Z,6.20
2022-12-08T03:02:46.592Z,6.20
2022-12-08T03:05:30.832Z,6.10
2022-12-08T03:08:09.919Z,6.10
2022-12-08T03:10:44.479Z,6.10
2022-12-08T03:13:15.804Z,6.00
2022-12-08T03:15:46.532Z,6.00
2022-12-08T03:18:17.666Z,6.00
2022-12-08T03:20:50.662Z,6.00
2022-12-08T03:23:19.889Z,6.10
2022-12-08T03:25:55.663Z,6.10
2022-12-08T03:28:24.016Z,6.10
2022-12-08T03:30:57.531Z,6.20
2022-12-08T03:33:29.144Z,6.20
2022-12-08T03:36:00.046Z,6.20
2022-12-08T03:38:28.199Z,6.20
2022-12-08T03:41:13.553Z,6.20
2022-12-08T03:43:41.832Z,6.20
2022-12-08T03:46:10.131Z,6.20
2022-12-08T03:48:38.260Z,6.40
2022-12-08T03:51:07.975Z,6.30
2022-12-08T03:53:36.039Z,6.50
2022-12-08T03:56:05.884Z,6.30
2022-12-08T03:58:37.475Z,6.30
2022-12-08T04:01:05.753Z,6.40
2022-12-08T04:03:33.782Z,6.30
2022-12-08T04:06:01.741Z,6.30
2022-12-08T04:08:31.169Z,6.20
2022-12-08T04:11:00.040Z,6.30
2022-12-08T04:13:28.628Z,6.30
2022-12-08T04:15:56.779Z,6.20
2022-12-08T04:18:24.812Z,6.20
2022-12-08T04:20:52.969Z,6.10
2022-12-08T04:23:21.301Z,5.90
2022-12-08T04:25:52.473Z,5.80
2022-12-08T04:28:20.669Z,5.60
2022-12-08T04:30:49.514Z,5.40
2022-12-08T04:33:17.663Z,5.30
2022-12-08T04:35:46.041Z,5.40
2022-12-08T04:38:14.857Z,5.30
2022-12-08T04:40:43.326Z,5.40
2022-12-08T04:43:12.858Z,5.40
2022-12-08T04:45:41.162Z,5.40
2022-12-08T04:48:09.284Z,5.60
2022-12-08T04:50:40.321Z,5.70
2022-12-08T04:53:09.054Z,5.80
2022-12-08T04:55:40.133Z,5.80
2022-12-08T04:58:08.385Z,5.80
2022-12-08T05:00:37.764Z,5.80
2022-12-08T05:03:06.136Z,5.80
2022-12-08T05:05:34.338Z,5.80
2022-12-08T05:08:02.783Z,5.80
2022-12-08T05:10:30.910Z,5.80
2022-12-08T05:13:01.290Z,5.80
2022-12-08T05:15:29.442Z,5.80
2022-12-08T05:17:58.921Z,5.80
2022-12-08T05:20:27.203Z,5.80
2022-12-08T05:22:57.961Z,5.90
2022-12-08T05:25:25.952Z,6.00
2022-12-08T05:28:06.174Z,5.90
2022-12-08T05:30:42.143Z,5.90
2022-12-08T05:33:11.648Z,5.90
2022-12-08T05:35:39.831Z,5.90
2022-12-08T05:38:08.161Z,5.80
2022-12-08T05:40:38.137Z,5.80
2022-12-08T05:43:06.594Z,5.90
2022-12-08T05:45:35.275Z,5.80
2022-12-08T05:48:03.379Z,5.90
2022-12-08T05:50:32.913Z,5.80
2022-12-08T05:53:00.847Z,5.80
2022-12-08T05:55:28.851Z,5.80
2022-12-08T05:58:00.845Z,5.80
2022-12-08T06:00:34.759Z,5.70
2022-12-08T06:03:03.007Z,5.50
2022-12-08T06:05:33.714Z,5.40
2022-12-08T06:08:02.050Z,5.10
2022-12-08T06:10:30.134Z,5.10
2022-12-08T06:13:01.821Z,5.00
2022-12-08T06:15:29.866Z,4.90
2022-12-08T06:18:01.042Z,4.80
2022-12-08T06:20:29.448Z,4.80
2022-12-08T06:22:59.363Z,4.60
2022-12-08T06:25:27.435Z,4.60
2022-12-08T06:27:55.650Z,4.60
2022-12-08T06:30:23.778Z,4.60
2022-12-08T06:32:51.889Z,4.80
2022-12-08T06:35:20.045Z,4.60
2022-12-08T06:37:48.262Z,4.60
2022-12-08T06:40:18.411Z,4.70
2022-12-08T06:42:47.223Z,4.70
2022-12-08T06:45:17.297Z,4.80
2022-12-08T06:47:45.678Z,4.90
2022-12-08T06:50:14.834Z,5.00
2022-12-08T06:52:54.252Z,5.10
2022-12-08T06:55:58.872Z,5.20
2022-12-08T06:58:16.884Z,5.20
2022-12-08T07:00:45.105Z,5.30
2022-12-08T07:03:13.915Z,5.20
2022-12-08T07:05:42.288Z,5.20
2022-12-08T07:08:10.807Z,5.30
2022-12-08T07:10:40.664Z,5.10
2022-12-08T07:13:08.784Z,5.20
2022-12-08T07:15:36.789Z,5.20
2022-12-08T07:18:04.758Z,5.20
2022-12-08T07:20:33.159Z,5.40
2022-12-08T07:23:01.296Z,5.20
2022-12-08T07:25:29.810Z,5.30
2022-12-08T07:27:59.404Z,5.30
2022-12-08T07:30:27.686Z,5.30
2022-12-08T07:32:55.915Z,5.30
2022-12-08T07:35:23.995Z,5.50
2022-12-08T07:37:52.083Z,5.30
2022-12-08T07:40:20.343Z,5.30
2022-12-08T07:42:48.331Z,5.20
2022-12-08T07:45:17.967Z,5.20
2022-12-08T07:47:46.143Z,5.10
2022-12-08T07:50:14.328Z,5.10
2022-12-08T07:52:42.404Z,5.10
2022-12-08T07:55:11.455Z,5.10
2022-12-08T07:57:39.621Z,5.10
2022-12-08T08:00:09.090Z,5.30
2022-12-08T08:02:38.705Z,5.20
2022-12-08T08:05:08.145Z,5.20
2022-12-08T08:07:39.680Z,5.10
2022-12-08T08:10:08.999Z,5.10
2022-12-08T08:12:37.448Z,5.00
2022-12-08T08:15:08.578Z,5.00
2022-12-08T08:17:38.960Z,5.00
2022-12-08T08:20:08.776Z,5.00
2022-12-08T08:22:37.473Z,5.10
2022-12-08T08:25:06.494Z,5.00
2022-12-08T08:27:34.628Z,5.00
2022-12-08T08:30:03.896Z,5.00
2022-12-08T08:32:35.602Z,5.00
2022-12-08T08:35:05.724Z,5.00
2022-12-08T08:37:33.693Z,5.10
2022-12-08T08:40:02.120Z,5.10
2022-12-08T08:42:30.278Z,5.10
2022-12-08T08:44:58.531Z,5.00
2022-12-08T08:47:26.777Z,5.00
2022-12-08T08:49:54.823Z,5.00
2022-12-08T08:52:24.368Z,5.10
2022-12-08T08:54:52.675Z,5.10
2022-12-08T08:57:25.334Z,5.20
2022-12-08T08:59:54.247Z,5.10
2022-12-08T09:02:22.427Z,4.90
2022-12-08T09:04:51.220Z,4.90
2022-12-08T09:07:19.440Z,4.90
2022-12-08T09:09:49.059Z,4.90
2022-12-08T09:12:17.055Z,4.80
2022-12-08T09:14:46.027Z,4.70
2022-12-08T09:17:14.766Z,4.70
2022-12-08T09:19:43.674Z,4.60
2022-12-08T09:22:11.987Z,4.60
2022-12-08T09:24:41.167Z,4.60
2022-12-08T09:27:10.578Z,4.60
2022-12-08T09:29:38.831Z,4.70
2022-12-08T09:32:07.498Z,4.90
2022-12-08T09:34:35.664Z,5.10
2022-12-08T09:37:04.289Z,5.00
2022-12-08T09:39:32.623Z,5.10
2022-12-08T09:42:02.949Z,5.10
2022-12-08T09:44:57.437Z,5.10
2022-12-08T09:47:35.344Z,5.10
2022-12-08T09:50:09.331Z,5.20
2022-12-08T09:52:44.840Z,5.20
2022-12-08T09:55:25.852Z,5.20
2022-12-08T09:58:02.117Z,5.20
2022-12-08T10:00:32.059Z,5.10
2022-12-08T10:03:00.614Z,5.10
2022-12-08T10:05:31.203Z,5.00
2022-12-08T10:08:09.390Z,5.00
2022-12-08T10:10:43.030Z,4.90
2022-12-08T10:13:19.739Z,4.80
2022-12-08T10:15:59.279Z,4.70
2022-12-08T10:18:32.313Z,4.60
2022-12-08T10:21:11.782Z,4.60
2022-12-08T10:23:42.711Z,4.80
2022-12-08T10:26:15.572Z,4.50
2022-12-08T10:28:45.451Z,4.40
2022-12-08T10:31:20.648Z,4.30
2022-12-08T10:33:53.738Z,4.30
2022-12-08T10:36:21.808Z,4.50
2022-12-08T10:38:50.085Z,4.50
2022-12-08T10:41:18.658Z,4.60
2022-12-08T10:43:53.717Z,4.70
2022-12-08T10:46:25.874Z,4.70
2022-12-08T10:48:56.024Z,4.80
2022-12-08T10:51:28.060Z,4.90
2022-12-08T10:53:56.820Z,4.90
2022-12-08T10:56:30.059Z,5.00
2022-12-08T10:59:15.263Z,5.10
2022-12-08T11:01:48.439Z,5.10
2022-12-08T11:04:19.665Z,5.10
2022-12-08T11:06:48.878Z,5.10
2022-12-08T11:09:36.058Z,5.10
2022-12-08T11:12:12.101Z,5.20
2022-12-08T11:14:50.270Z,5.30
2022-12-08T11:17:28.000Z,5.30
2022-12-08T11:20:01.684Z,5.30
2022-12-08T11:22:33.797Z,5.40
2022-12-08T11:25:04.814Z,5.50
2022-12-08T11:27:36.452Z,5.50
2022-12-08T11:30:14.853Z,5.50
2022-12-08T11:32:47.046Z,5.60
2022-12-08T11:35:26.955Z,5.80
2022-12-08T11:38:13.420Z,5.70
2022-12-08T11:40:48.918Z,5.60
2022-12-08T11:43:19.998Z,5.50
2022-12-08T11:45:55.044Z,5.20
2022-12-08T11:48:31.599Z,5.10
2022-12-08T11:51:03.661Z,4.90
2022-12-08T11:53:36.967Z,4.70
2022-12-08T11:56:11.487Z,4.50
2022-12-08T11:58:43.750Z,4.40
2022-12-08T12:01:21.260Z,4.40
2022-12-08T12:03:59.809Z,4.30
2022-12-08T12:06:56.560Z,4.40
2022-12-08T12:09:34.959Z,4.50
2022-12-08T12:12:17.131Z,4.60
2022-12-08T12:15:17.241Z,4.70
2022-12-08T12:17:49.073Z,4.80
2022-12-08T12:20:23.936Z,4.70
2022-12-08T12:22:58.062Z,4.70
2022-12-08T12:25:28.248Z,4.70
2022-12-08T12:28:03.488Z,4.70
2022-12-08T12:30:51.389Z,4.70
2022-12-08T12:33:20.755Z,4.70
2022-12-08T12:35:51.147Z,4.70
2022-12-08T12:38:44.465Z,4.70
2022-12-08T12:41:14.943Z,4.70
2022-12-08T12:44:11.113Z,4.70
2022-12-08T12:46:43.006Z,4.70
2022-12-08T12:49:48.842Z,4.70
2022-12-08T12:52:41.319Z,4.80
2022-12-08T12:55:30.819Z,4.90
2022-12-08T12:57:59.691Z,5.10
2022-12-08T13:00:28.762Z,5.20
2022-12-08T13:02:58.852Z,5.30
2022-12-08T13:05:28.506Z,5.40
2022-12-08T13:08:00.778Z,5.30
2022-12-08T13:10:32.261Z,5.40
2022-12-08T13:13:07.148Z,5.50
2022-12-08T13:15:38.074Z,5.50
2022-12-08T13:18:08.222Z,5.50
2022-12-08T13:20:44.540Z,5.50
2022-12-08T13:23:30.266Z,5.60
2022-12-08T13:26:15.611Z,5.70
2022-12-08T13:29:08.674Z,5.70
2022-12-08T13:31:46.645Z,5.70
2022-12-08T13:34:22.723Z,5.70
2022-12-08T13:37:05.311Z,5.60
2022-12-08T13:39:43.126Z,5.70
2022-12-08T13:42:20.697Z,5.60
2022-12-08T13:48:20.622Z,5.60
2022-12-08T13:51:15.941Z,5.60
2022-12-08T13:54:42.608Z,5.50
2022-12-08T13:59:28.056Z,5.30
2022-12-08T14:01:58.133Z,5.50
2022-12-08T14:04:54.347Z,5.50
2022-12-08T14:07:16.229Z,5.40
2022-12-08T14:09:44.591Z,5.50
2022-12-08T14:12:20.685Z,5.40
2022-12-08T14:15:06.253Z,5.40
2022-12-08T14:17:35.211Z,5.50
2022-12-08T14:20:06.833Z,5.30
2022-12-08T14:22:35.923Z,5.20
2022-12-08T14:25:06.012Z,5.40
2022-12-08T14:27:38.743Z,5.20
2022-12-08T14:30:09.068Z,5.10
2022-12-08T14:32:40.472Z,5.10
2022-12-08T14:35:27.309Z,5.10
2022-12-08T14:37:59.171Z,4.90
2022-12-08T14:40:33.743Z,5.10
2022-12-08T14:43:16.138Z,5.10
2022-12-08T14:45:50.639Z,4.90
2022-12-08T14:48:23.380Z,4.90
2022-12-08T14:51:02.369Z,4.90
2022-12-08T14:53:38.067Z,4.90
2022-12-08T14:56:10.570Z,4.90
2022-12-08T14:58:40.119Z,4.80
2022-12-08T15:01:10.501Z,4.70
2022-12-08T15:03:38.660Z,4.70
2022-12-08T15:06:08.672Z,4.70
2022-12-08T15:08:54.054Z,4.60
2022-12-08T15:11:34.095Z,4.80
2022-12-08T15:14:03.929Z,4.60
2022-12-08T15:16:39.421Z,4.60
2022-12-08T15:19:18.822Z,4.70
2022-12-08T15:21:48.154Z,4.80
2022-12-08T15:24:16.939Z,4.80
2022-12-08T15:26:47.410Z,4.90
2022-12-08T15:29:22.700Z,4.70
2022-12-08T15:31:52.324Z,4.70
2022-12-08T15:34:20.533Z,4.70
2022-12-08T15:36:48.948Z,4.60
2022-12-08T15:39:33.019Z,4.60
2022-12-08T15:42:02.202Z,4.60
2022-12-08T15:44:33.007Z,4.50
2022-12-08T15:47:01.759Z,4.50
2022-12-08T15:49:29.971Z,4.50
2022-12-08T15:52:10.854Z,4.50
2022-12-08T15:54:39.999Z,4.40
2022-12-08T15:57:29.975Z,4.40
2022-12-08T16:00:19.118Z,4.40
2022-12-08T16:03:22.509Z,4.40
2022-12-08T16:05:50.057Z,4.50
2022-12-08T16:08:46.144Z,4.40
2022-12-08T16:17:17.733Z,4.30
2022-12-08T16:19:46.627Z,4.40
2022-12-08T16:22:51.718Z,4.40
2022-12-08T16:25:22.720Z,4.30
2022-12-08T16:28:08.326Z,4.30
2022-12-08T16:30:40.931Z,4.20
2022-12-08T16:33:11.026Z,4.20
2022-12-08T16:35:39.362Z,4.20
2022-12-08T16:38:07.388Z,4.30
2022-12-08T16:40:56.658Z,4.30
2022-12-08T16:43:23.729Z,4.40
2022-12-08T16:45:52.751Z,4.40
2022-12-08T16:48:23.276Z,4.50
2022-12-08T16:50:51.796Z,4.50
2022-12-08T16:53:21.127Z,4.60
2022-12-08T16:55:52.833Z,4.60
2022-12-08T16:58:21.013Z,4.50
2022-12-08T17:00:49.196Z,4.50
2022-12-08T17:03:17.866Z,4.50
2022-12-08T17:05:47.796Z,4.50
2022-12-08T17:08:15.876Z,4.40
2022-12-08T17:10:44.083Z,4.40
2022-12-08T17:13:13.130Z,4.40
2022-12-08T17:15:41.487Z,4.40
2022-12-08T17:18:09.648Z,4.40
2022-12-08T17:20:37.688Z,4.40
2022-12-08T17:23:09.571Z,4.40
2022-12-08T17:25:38.102Z,4.40
2022-12-08T17:28:06.745Z,4.40
2022-12-08T17:30:34.732Z,4.40
2022-12-08T17:33:02.973Z,4.40
2022-12-08T17:35:30.810Z,4.40
2022-12-08T17:37:58.779Z,4.30
2022-12-08T17:40:28.522Z,4.30
2022-12-08T17:42:58.934Z,4.30
2022-12-08T17:45:27.008Z,4.20
2022-12-08T17:47:55.206Z,4.20
2022-12-08T17:50:23.441Z,4.20
2022-12-08T17:52:52.302Z,4.10
2022-12-08T17:55:20.394Z,4.00
2022-12-08T17:57:49.856Z,4.00
2022-12-08T18:00:18.837Z,4.00
2022-12-08T18:02:46.891Z,4.00
2022-12-08T18:05:15.188Z,4.00
2022-12-08T18:07:43.565Z,3.90
2022-12-08T18:10:13.192Z,3.90
2022-12-08T18:12:41.681Z,3.90
2022-12-08T18:15:16.578Z,3.90
2022-12-08T18:17:45.019Z,3.90
2022-12-08T18:20:14.063Z,4.00
2022-12-08T18:22:45.798Z,3.80
2022-12-08T18:25:14.869Z,3.90
2022-12-08T18:27:44.151Z,3.90
2022-12-08T18:30:17.521Z,3.90
2022-12-08T18:32:45.926Z,3.90
2022-12-08T18:35:14.361Z,3.90
2022-12-08T18:37:43.035Z,3.90
2022-12-08T18:40:14.662Z,3.90
2022-12-08T18:42:42.808Z,3.90
2022-12-08T18:45:15.759Z,3.90
2022-12-08T18:47:47.463Z,3.80
2022-12-08T18:50:15.824Z,3.80
2022-12-08T18:52:44.821Z,3.80
2022-12-08T18:55:13.462Z,4.00
2022-12-08T18:57:43.407Z,3.80
2022-12-08T19:00:16.678Z,3.90
2022-12-08T19:02:47.693Z,3.90
2022-12-08T19:05:15.987Z,3.90
2022-12-08T19:07:45.789Z,3.90
2022-12-08T19:10:14.452Z,3.80
2022-12-08T19:12:42.939Z,3.70
2022-12-08T19:15:14.162Z,3.70
2022-12-08T19:17:43.880Z,3.60
2022-12-08T19:20:18.585Z,3.70
2022-12-08T19:22:50.026Z,3.60
2022-12-08T19:25:18.674Z,3.60
2022-12-08T19:27:46.700Z,3.60
2022-12-08T19:30:16.063Z,3.60
2022-12-08T19:32:45.812Z,3.70
2022-12-08T19:35:13.950Z,3.60
2022-12-08T19:37:42.174Z,3.60
2022-12-08T19:40:32.616Z,3.50
2022-12-08T19:43:32.625Z,3.50
2022-12-08T19:46:01.003Z,3.50
2022-12-08T19:48:30.882Z,3.40
2022-12-08T19:50:59.046Z,3.40
2022-12-08T19:53:29.599Z,3.40
2022-12-08T19:56:01.176Z,3.40
2022-12-08T19:58:32.080Z,3.40
2022-12-08T20:01:00.533Z,3.40
2022-12-08T20:03:30.973Z,3.30
2022-12-08T20:05:59.485Z,3.30
2022-12-08T20:08:29.572Z,3.30
2022-12-08T20:11:02.517Z,3.20
2022-12-08T20:13:45.874Z,3.10
2022-12-08T20:16:37.107Z,3.10
2022-12-08T20:30:22.348Z,2.80
2022-12-08T20:32:50.439Z,2.70
2022-12-08T20:35:18.762Z,2.70
2022-12-08T20:37:46.883Z,2.70
2022-12-08T20:40:15.910Z,2.70
2022-12-08T20:42:48.224Z,2.70
2022-12-08T20:51:06.798Z,2.50
2022-12-08T20:53:35.038Z,2.50
2022-12-08T20:56:05.509Z,2.50
2022-12-08T20:58:33.596Z,2.40
2022-12-08T21:01:01.605Z,2.40
2022-12-08T21:03:29.873Z,2.40
2022-12-08T21:05:59.076Z,2.40
2022-12-08T21:08:28.937Z,2.40
2022-12-08T21:11:00.556Z,2.40
2022-12-08T21:13:29.157Z,2.50
2022-12-08T21:15:57.762Z,2.50
2022-12-08T21:18:26.625Z,2.50
2022-12-08T21:21:04.602Z,2.50
2022-12-08T21:23:34.721Z,2.40
2022-12-08T21:26:03.537Z,2.50
2022-12-08T21:28:34.011Z,2.60
2022-12-08T21:31:02.167Z,2.50
2022-12-08T21:33:30.533Z,2.60
2022-12-08T21:36:04.347Z,2.60
2022-12-08T21:38:33.889Z,2.60
2022-12-08T21:41:05.115Z,2.60
2022-12-08T21:43:33.860Z,2.60
2022-12-08T21:46:02.413Z,2.60
2022-12-08T21:48:30.605Z,2.40
2022-12-08T21:51:14.863Z,2.60
2022-12-08T21:53:44.605Z,2.50
2022-12-08T21:56:12.708Z,2.50
2022-12-08T21:58:40.665Z,2.40
2022-12-08T22:01:13.907Z,2.40
2022-12-08T22:03:45.966Z,2.40
2022-12-08T22:06:15.224Z,2.40
2022-12-08T22:08:45.236Z,2.40
2022-12-08T22:11:13.596Z,2.30
2022-12-08T22:13:42.778Z,2.30
2022-12-08T22:16:12.220Z,2.30
2022-12-08T22:18:40.229Z,2.30
2022-12-08T22:21:14.963Z,2.20
2022-12-08T22:23:45.588Z,2.20
2022-12-08T22:26:14.399Z,2.20
2022-12-08T22:28:44.411Z,2.10
2022-12-08T22:31:14.342Z,2.10
2022-12-08T22:33:43.443Z,2.20
2022-12-08T22:36:16.347Z,2.20
2022-12-08T22:38:48.710Z,2.20
2022-12-08T22:41:17.285Z,2.30
2022-12-08T22:43:48.012Z,2.30
2022-12-08T22:46:20.865Z,2.30
2022-12-08T22:48:50.103Z,2.30
2022-12-08T22:51:18.315Z,2.30
2022-12-08T22:53:50.850Z,2.30
2022-12-08T22:56:19.867Z,2.30
2022-12-08T22:58:48.473Z,2.20
2022-12-08T23:01:29.032Z,2.10
2022-12-08T23:03:58.214Z,2.10
2022-12-08T23:06:27.722Z,2.10
2022-12-08T23:09:00.688Z,2.00
2022-12-08T23:11:31.555Z,2.00
2022-12-08T23:14:01.068Z,1.90
2022-12-08T23:16:29.627Z,1.80
2022-12-08T23:19:01.068Z,1.80
2022-12-08T23:21:31.339Z,1.80
2022-12-08T23:24:01.132Z,1.80
2022-12-08T23:26:31.690Z,1.80
2022-12-08T23:29:00.735Z,1.80
2022-12-08T23:31:29.118Z,1.90
2022-12-08T23:33:57.810Z,1.90
2022-12-08T23:36:30.109Z,1.90
2022-12-08T23:38:58.427Z,1.90
2022-12-08T23:41:28.025Z,2.00
2022-12-08T23:43:56.854Z,2.10
2022-12-08T23:46:26.106Z,2.10
2022-12-08T23:48:54.274Z,2.10
2022-12-08T23:51:22.372Z,2.20
2022-12-08T23:53:50.402Z,2.20
2022-12-08T23:56:19.911Z,2.10
2022-12-08T23:58:51.472Z,2.10
